createdAt,value
2018-05-09T02:44:34.754Z,9.57
2018-05-09T02:47:01.183Z,9.10
2018-05-09T02:49:27.583Z,9.00
2018-05-09T02:51:54.734Z,9.20
2018-05-09T02:54:21.872Z,8.85
2018-05-09T02:56:48.272Z,8.30
2018-05-09T02:59:14.647Z,9.85
2018-05-09T03:01:41.093Z,9.15
2018-05-09T03:04:08.210Z,8.93
2018-05-09T03:06:34.727Z,9.75
2018-05-09T03:09:01.140Z,9.70
2018-05-09T03:11:27.551Z,10.18
2018-05-09T03:13:54.712Z,9.85
2018-05-09T03:16:21.083Z,9.80
2018-05-09T03:18:47.491Z,10.15
2018-05-09T03:21:13.889Z,10.10
2018-05-09T03:23:41.034Z,9.73
2018-05-09T03:26:07.423Z,9.67
2018-05-09T03:28:33.954Z,9.80
2018-05-09T03:31:00.335Z,9.50
2018-05-09T03:33:26.764Z,10.60
2018-05-09T03:35:53.934Z,9.80
2018-05-09T03:38:21.068Z,10.48
2018-05-09T03:40:47.462Z,10.20
2018-05-09T03:43:13.848Z,10.50
2018-05-09T03:45:40.253Z,11.15
2018-05-09T03:48:06.624Z,11.52
2018-05-09T03:50:33.799Z,12.00
2018-05-09T03:53:00.207Z,11.60
2018-05-09T03:55:27.328Z,9.85
2018-05-09T03:57:53.721Z,9.32
2018-05-09T04:00:20.110Z,11.15
2018-05-09T04:02:58.757Z,11.43
2018-05-09T04:05:38.362Z,10.48
2018-05-09T04:08:17.046Z,11.30
2018-05-09T04:10:43.478Z,11.50
2018-05-09T04:13:09.915Z,10.77
2018-05-09T04:15:36.261Z,11.35
2018-05-09T04:18:02.711Z,11.63
2018-05-09T04:20:29.080Z,11.00
2018-05-09T04:22:56.251Z,12.00
2018-05-09T04:25:23.372Z,9.70
2018-05-09T04:27:49.759Z,11.30
2018-05-09T04:30:16.145Z,11.00
2018-05-09T04:32:42.577Z,10.23
2018-05-09T04:35:08.980Z,9.23
2018-05-09T04:37:35.353Z,9.80
2018-05-09T04:40:02.507Z,9.77
2018-05-09T04:42:29.636Z,10.00
2018-05-09T04:44:56.043Z,10.27
2018-05-09T04:47:22.497Z,9.65
2018-05-09T04:49:48.920Z,9.10
2018-05-09T04:52:15.333Z,9.25
2018-05-09T04:54:41.737Z,9.68
2018-05-09T04:57:08.876Z,10.63
2018-05-09T04:59:35.257Z,9.33
2018-05-09T05:02:01.663Z,10.13
2018-05-09T05:04:28.800Z,10.50
2018-05-09T05:06:55.947Z,9.83
2018-05-09T05:09:23.134Z,10.32
2018-05-09T05:11:49.515Z,11.10
2018-05-09T05:14:15.930Z,10.70
2018-05-09T05:16:42.332Z,10.90
2018-05-09T05:19:08.756Z,11.25
2018-05-09T05:21:35.900Z,11.80
2018-05-09T05:24:03.094Z,11.85
2018-05-09T05:26:29.513Z,11.40
2018-05-09T05:28:55.897Z,11.80
2018-05-09T05:31:22.308Z,12.25
2018-05-09T05:33:48.681Z,13.25
2018-05-09T05:36:15.816Z,12.90
2018-05-09T05:38:42.997Z,12.13
2018-05-09T05:41:09.364Z,12.82
2018-05-09T05:43:35.762Z,13.70
2018-05-09T05:46:02.923Z,13.50
2018-05-09T05:48:29.385Z,13.20
2018-05-09T05:50:55.782Z,11.93
2018-05-09T05:53:22.924Z,11.50
2018-05-09T05:55:49.321Z,11.60
2018-05-09T05:58:15.733Z,11.50
2018-05-09T06:00:42.133Z,11.55
2018-05-09T06:03:09.277Z,9.82
2018-05-09T06:05:36.484Z,10.63
2018-05-09T06:08:02.960Z,10.80
2018-05-09T06:10:29.355Z,11.05
2018-05-09T06:12:55.843Z,10.60
2018-05-09T06:15:23.155Z,9.95
2018-05-09T06:17:49.600Z,10.45
2018-05-09T06:20:16.011Z,10.20
2018-05-09T06:22:42.425Z,8.75
2018-05-09T06:25:08.854Z,9.23
2018-05-09T06:27:35.252Z,10.00
2018-05-09T06:30:01.715Z,9.80
2018-05-09T06:32:28.893Z,9.38
2018-05-09T06:34:55.282Z,10.02
2018-05-09T06:37:22.489Z,9.50
2018-05-09T06:39:48.877Z,9.40
2018-05-09T06:42:16.052Z,9.23
2018-05-09T06:44:42.459Z,10.07
2018-05-09T06:47:09.639Z,10.45
2018-05-09T06:49:36.073Z,10.40
2018-05-09T06:52:02.525Z,10.35
2018-05-09T06:54:28.974Z,10.45
2018-05-09T06:56:55.353Z,9.70
2018-05-09T06:59:22.512Z,10.80
2018-05-09T07:01:49.666Z,11.20
2018-05-09T07:04:16.142Z,10.97
2018-05-09T07:06:43.345Z,10.55
2018-05-09T07:09:09.584Z,10.18
2018-05-09T07:11:36.741Z,9.07
2018-05-09T07:14:03.129Z,9.40
2018-05-09T07:16:29.543Z,9.10
2018-05-09T07:18:55.956Z,7.70
2018-05-09T07:21:22.432Z,8.68
2018-05-09T07:23:48.875Z,8.15
2018-05-09T07:26:15.363Z,7.60
2018-05-09T07:28:41.798Z,8.02
2018-05-09T07:31:08.240Z,8.40
2018-05-09T07:33:34.663Z,8.20
2018-05-09T07:36:01.096Z,8.50
2018-05-09T07:38:27.492Z,8.10
2018-05-09T07:40:53.907Z,7.95
2018-05-09T07:43:20.311Z,8.70
2018-05-09T07:45:46.735Z,9.05
2018-05-09T07:48:13.159Z,8.82
2018-05-09T07:50:39.539Z,7.90
2018-05-09T07:53:06.007Z,8.20
2018-05-09T07:55:33.162Z,7.80
2018-05-09T07:58:00.312Z,8.65
2018-05-09T08:00:27.455Z,8.90
2018-05-09T08:02:53.905Z,9.10
2018-05-09T08:05:21.187Z,9.38
2018-05-09T08:07:47.612Z,8.93
2018-05-09T08:10:14.131Z,8.70
2018-05-09T08:12:41.285Z,8.50
2018-05-09T08:15:08.486Z,8.30
2018-05-09T08:17:34.860Z,8.10
2018-05-09T08:20:02.032Z,7.70
2018-05-09T08:22:29.165Z,8.30
2018-05-09T08:24:56.289Z,8.93
2018-05-09T08:27:22.710Z,8.73
2018-05-09T08:29:49.103Z,8.45
2018-05-09T08:32:16.243Z,8.00
2018-05-09T08:34:43.363Z,8.10
2018-05-09T08:37:09.766Z,8.50
2018-05-09T08:39:36.157Z,8.10
2018-05-09T08:42:03.294Z,7.45
2018-05-09T08:44:29.746Z,7.40
2018-05-09T08:46:56.860Z,7.87
2018-05-09T08:49:23.293Z,6.75
2018-05-09T08:51:49.665Z,6.82
2018-05-09T08:54:16.923Z,6.90
2018-05-09T08:56:44.054Z,6.40
2018-05-09T08:59:10.446Z,6.30
2018-05-09T09:01:36.811Z,6.95
2018-05-09T09:04:03.216Z,7.30
2018-05-09T09:06:29.712Z,8.63
2018-05-09T09:08:56.007Z,7.20
2018-05-09T09:11:22.415Z,6.37
2018-05-09T09:13:48.780Z,7.00
2018-05-09T09:16:15.229Z,6.53
2018-05-09T09:18:41.630Z,6.50
2018-05-09T09:21:08.075Z,6.03
2018-05-09T09:23:34.446Z,6.70
2018-05-09T09:26:01.594Z,6.53
2018-05-09T09:28:28.737Z,6.55
2018-05-09T09:30:55.113Z,7.20
2018-05-09T09:33:21.513Z,7.37
2018-05-09T09:35:48.663Z,7.10
2018-05-09T09:38:15.800Z,6.53
2018-05-09T09:40:42.182Z,6.20
2018-05-09T09:43:08.592Z,5.90
2018-05-09T09:45:35.719Z,5.65
2018-05-09T09:48:02.083Z,6.60
2018-05-09T09:50:28.478Z,5.60
2018-05-09T09:52:54.855Z,5.50
2018-05-09T09:55:21.248Z,5.68
2018-05-09T09:57:47.625Z,6.22
2018-05-09T10:00:14.064Z,5.67
2018-05-09T10:02:40.440Z,6.35
2018-05-09T10:05:06.823Z,5.60
2018-05-09T10:07:33.215Z,5.78
2018-05-09T10:10:00.328Z,4.37
2018-05-09T10:24:39.292Z,5.23
2018-05-09T10:27:06.425Z,5.60
2018-05-09T10:29:32.812Z,5.10
2018-05-09T10:31:59.246Z,5.50
2018-05-09T10:34:25.687Z,6.20
2018-05-09T10:36:52.089Z,6.07
2018-05-09T10:39:19.232Z,5.40
2018-05-09T10:41:45.595Z,5.30
2018-05-09T10:44:11.985Z,4.40
2018-05-09T10:46:38.364Z,4.53
2018-05-09T10:49:04.765Z,4.40
2018-05-09T10:51:31.169Z,4.77
2018-05-09T10:53:57.576Z,4.93
2018-05-09T10:56:23.946Z,3.73
2018-05-09T10:58:50.332Z,4.10
2018-05-09T11:01:16.721Z,3.47
2018-05-09T11:03:43.116Z,4.20
2018-05-09T11:06:09.532Z,3.50
2018-05-09T11:08:35.919Z,3.50
2018-05-09T11:11:02.372Z,3.43
2018-05-09T11:13:29.609Z,3.80
2018-05-09T11:15:56.103Z,4.17
2018-05-09T11:18:22.606Z,4.30
2018-05-09T11:20:49.820Z,5.47
2018-05-09T11:23:16.349Z,4.73
2018-05-09T11:25:42.749Z,4.60
2018-05-09T11:28:09.888Z,3.70
2018-05-09T11:30:37.045Z,4.07
2018-05-09T11:33:04.172Z,5.17
2018-05-09T11:35:30.543Z,4.73
2018-05-09T11:37:56.957Z,4.50
2018-05-09T11:40:24.089Z,3.93
2018-05-09T11:42:50.484Z,3.50
2018-05-09T11:45:16.865Z,2.97
2018-05-09T11:47:43.245Z,2.90
2018-05-09T11:50:09.637Z,3.00
2018-05-09T11:52:36.752Z,3.10
2018-05-09T11:55:03.159Z,3.40
2018-05-09T11:57:29.545Z,3.20
2018-05-09T11:59:55.936Z,3.10
2018-05-09T12:02:22.361Z,2.43
2018-05-09T12:04:49.464Z,2.93
2018-05-09T12:07:15.876Z,3.23
2018-05-09T12:09:42.288Z,3.47
2018-05-09T12:12:08.664Z,4.00
2018-05-09T12:14:35.104Z,3.43
2018-05-09T12:17:01.512Z,4.20
2018-05-09T12:19:27.904Z,3.50
2018-05-09T12:21:54.411Z,3.40
2018-05-09T12:24:20.835Z,3.17
2018-05-09T12:26:47.325Z,3.27
2018-05-09T12:29:13.714Z,4.00
2018-05-09T12:31:40.146Z,3.43
2018-05-09T12:34:06.519Z,3.60
2018-05-09T12:36:32.976Z,3.50
2018-05-09T12:38:59.424Z,3.00
2018-05-09T12:41:25.896Z,3.43
2018-05-09T12:43:53.015Z,3.47
2018-05-09T12:46:19.448Z,3.87
2018-05-09T12:48:45.862Z,4.47
2018-05-09T12:51:12.229Z,4.70
2018-05-09T12:53:38.606Z,3.60
2018-05-09T12:56:05.044Z,3.87
2018-05-09T12:58:31.553Z,3.40
2018-05-09T13:00:58.727Z,3.10
2018-05-09T13:03:25.122Z,3.43
2018-05-09T13:05:51.584Z,3.37
2018-05-09T13:08:18.761Z,3.60
2018-05-09T13:10:45.212Z,3.80
2018-05-09T13:13:11.778Z,3.90
2018-05-09T13:15:38.269Z,3.87
2018-05-09T13:18:04.703Z,3.80
2018-05-09T13:20:31.092Z,3.93
2018-05-09T13:22:57.570Z,3.23
2018-05-09T13:25:23.977Z,4.37
2018-05-09T13:27:51.239Z,4.07
2018-05-09T13:30:18.369Z,3.67
2018-05-09T13:32:44.790Z,4.07
2018-05-09T13:35:11.241Z,3.90
2018-05-09T13:37:38.380Z,4.30
2018-05-09T13:40:04.883Z,3.93
2018-05-09T13:42:31.984Z,3.60
2018-05-09T13:44:58.411Z,3.00
2018-05-09T13:47:24.809Z,2.97
2018-05-09T13:49:51.293Z,3.23
2018-05-09T13:52:18.412Z,4.20
2018-05-09T13:54:44.809Z,3.27
2018-05-09T13:57:11.186Z,3.90
2018-05-09T13:59:37.582Z,3.97
2018-05-09T14:02:03.958Z,3.43
2018-05-09T14:04:30.358Z,3.60
2018-05-09T14:06:56.748Z,2.80
2018-05-09T14:09:23.867Z,3.07
2018-05-09T14:11:50.268Z,3.00
2018-05-09T14:14:16.642Z,3.10
2018-05-09T14:16:43.033Z,3.40
2018-05-09T14:19:09.446Z,3.07
2018-05-09T14:21:36.595Z,2.90
2018-05-09T14:24:03.707Z,2.87
2018-05-09T14:26:30.117Z,3.60
2018-05-09T14:28:56.484Z,3.37
2018-05-09T14:31:22.886Z,3.60
2018-05-09T14:33:49.251Z,3.77
2018-05-09T14:36:15.646Z,3.80
2018-05-09T14:38:42.035Z,4.30
2018-05-09T14:41:09.144Z,4.97
2018-05-09T14:43:35.560Z,4.60
2018-05-09T14:46:01.943Z,3.97
2018-05-09T14:48:28.362Z,4.50
2018-05-09T14:50:54.741Z,3.77
2018-05-09T14:53:21.872Z,4.53
2018-05-09T14:55:49.065Z,4.20
2018-05-09T14:58:15.444Z,5.30
2018-05-09T15:00:41.885Z,4.77
2018-05-09T15:03:08.269Z,4.87
2018-05-09T15:05:34.715Z,3.83
2018-05-09T15:08:01.118Z,4.80
2018-05-09T15:10:27.541Z,4.80
2018-05-09T15:12:55.040Z,4.87
2018-05-09T15:15:21.436Z,4.57
2018-05-09T15:17:48.535Z,4.33
2018-05-09T15:20:14.952Z,4.00
2018-05-09T15:22:41.436Z,4.23
2018-05-09T15:25:07.812Z,4.30
2018-05-09T15:27:34.261Z,5.00
2018-05-09T15:30:00.669Z,4.07
2018-05-09T15:32:27.108Z,5.13
2018-05-09T15:34:53.495Z,3.90
2018-05-09T15:37:20.647Z,4.60
2018-05-09T15:39:47.769Z,4.53
2018-05-09T15:42:14.174Z,3.70
2018-05-09T15:44:40.589Z,3.67
2018-05-09T15:47:07.815Z,3.10
2018-05-09T15:49:34.211Z,3.50
2018-05-09T15:52:00.636Z,3.37
2018-05-09T15:54:27.067Z,3.80
2018-05-09T15:56:53.445Z,4.20
2018-05-09T15:59:19.873Z,4.10
2018-05-09T16:01:46.308Z,4.13
2018-05-09T16:04:12.772Z,3.90
2018-05-09T16:06:39.172Z,3.17
2018-05-09T16:09:05.590Z,3.47
2018-05-09T16:11:31.992Z,3.47
2018-05-09T16:13:59.162Z,3.37
2018-05-09T16:16:25.567Z,3.77
2018-05-09T16:18:52.769Z,3.10
2018-05-09T16:21:19.212Z,2.90
2018-05-09T16:23:45.575Z,2.80
2018-05-09T16:26:12.013Z,3.23
2018-05-09T16:28:38.400Z,2.83
2018-05-09T16:31:04.808Z,2.93
2018-05-09T16:33:31.926Z,3.13
2018-05-09T16:35:59.088Z,3.00
2018-05-09T16:38:25.472Z,3.10
2018-05-09T16:40:51.928Z,3.13
2018-05-09T16:43:18.383Z,3.80
2018-05-09T16:45:44.791Z,3.07
2018-05-09T16:48:11.198Z,3.57
2018-05-09T16:50:37.609Z,3.57
2018-05-09T16:53:04.739Z,3.50
2018-05-09T16:55:31.107Z,3.90
2018-05-09T16:57:57.501Z,4.20
2018-05-09T17:00:23.918Z,4.43
2018-05-09T17:02:50.307Z,4.00
2018-05-09T17:05:16.721Z,3.90
2018-05-09T17:07:43.858Z,5.33
2018-05-09T17:10:10.280Z,5.90
2018-05-09T17:12:36.661Z,4.50
2018-05-09T17:15:03.842Z,3.57
2018-05-09T17:17:30.272Z,4.03
2018-05-09T17:19:56.650Z,3.13
2018-05-09T17:22:32.186Z,3.30
2018-05-09T17:24:58.595Z,3.53
2018-05-09T17:27:25.024Z,3.70
2018-05-09T17:29:51.440Z,3.73
2018-05-09T17:32:17.873Z,4.07
2018-05-09T17:34:44.255Z,3.57
2018-05-09T17:37:10.676Z,3.00
2018-05-09T17:39:37.052Z,3.40
2018-05-09T17:42:04.204Z,3.03
2018-05-09T17:44:31.397Z,3.37
2018-05-09T17:46:57.844Z,2.93
2018-05-09T17:49:24.252Z,3.73
2018-05-09T17:51:50.675Z,3.53
2018-05-09T17:54:17.861Z,3.67
2018-05-09T17:56:44.261Z,3.20
2018-05-09T17:59:11.409Z,4.17
2018-05-09T18:01:38.579Z,3.63
2018-05-09T18:04:05.055Z,3.70
2018-05-09T18:06:31.449Z,3.50
2018-05-09T18:08:57.852Z,3.70
2018-05-09T18:11:24.264Z,3.07
2018-05-09T18:13:50.635Z,3.30
2018-05-09T18:16:17.792Z,4.13
2018-05-09T18:18:44.188Z,3.87
2018-05-09T18:21:11.388Z,3.77
2018-05-09T18:23:37.766Z,3.60
2018-05-09T18:26:04.240Z,3.50
